createdAt,value
2023-02-15T00:01:44.395Z,37.55
2023-02-15T00:04:14.648Z,33.65
2023-02-15T00:06:41.790Z,35.83
2023-02-15T00:09:10.503Z,37.90
2023-02-15T00:11:40.690Z,34.60
2023-02-15T00:14:23.157Z,33.83
2023-02-15T00:16:52.696Z,36.30
2023-02-15T00:19:21.137Z,35.75
2023-02-15T00:21:49.743Z,35.13
2023-02-15T00:24:18.533Z,36.30
2023-02-15T00:26:46.650Z,35.08
2023-02-15T00:29:14.896Z,36.40
2023-02-15T00:31:41.989Z,35.35
2023-02-15T00:34:13.511Z,36.17
2023-02-15T00:36:40.803Z,36.53
2023-02-15T00:39:09.035Z,35.33
2023-02-15T00:41:36.014Z,37.15
2023-02-15T00:44:03.245Z,34.78
2023-02-15T00:46:30.516Z,36.13
2023-02-15T00:48:57.592Z,36.03
2023-02-15T00:51:25.111Z,35.70
2023-02-15T00:53:52.073Z,34.40
2023-02-15T00:56:18.853Z,34.47
2023-02-15T00:58:45.714Z,34.28
2023-02-15T01:01:19.002Z,35.55
2023-02-15T01:03:47.588Z,35.38
2023-02-15T01:06:16.354Z,34.70
2023-02-15T01:08:44.521Z,35.80
2023-02-15T01:11:22.802Z,37.47
2023-02-15T01:13:55.546Z,36.25
2023-02-15T01:16:24.417Z,37.75
2023-02-15T01:18:51.342Z,37.63
2023-02-15T01:21:20.882Z,37.70
2023-02-15T01:23:48.019Z,36.50
2023-02-15T01:26:15.764Z,37.10
2023-02-15T01:28:42.905Z,37.88
2023-02-15T01:31:12.601Z,36.38
2023-02-15T01:33:39.650Z,36.70
2023-02-15T01:36:07.087Z,36.28
2023-02-15T01:38:35.429Z,35.95
2023-02-15T01:41:20.582Z,37.60
2023-02-15T01:43:50.364Z,35.05
2023-02-15T01:46:20.620Z,36.13
2023-02-15T01:48:57.735Z,37.05
2023-02-15T01:51:28.537Z,37.53
2023-02-15T01:54:02.482Z,37.53
2023-02-15T01:56:32.891Z,36.10
2023-02-15T01:59:04.752Z,35.85
2023-02-15T02:01:32.102Z,36.00
2023-02-15T02:04:17.452Z,38.85
2023-02-15T02:06:47.346Z,35.85
2023-02-15T02:09:14.306Z,38.72
2023-02-15T02:11:42.222Z,36.25
2023-02-15T02:14:09.402Z,35.67
2023-02-15T02:16:42.740Z,35.60
2023-02-15T02:19:21.171Z,37.63
2023-02-15T02:22:29.062Z,36.45
2023-02-15T02:25:30.307Z,37.85
2023-02-15T02:28:15.823Z,36.80
2023-02-15T02:31:12.015Z,37.67
2023-02-15T02:33:55.166Z,36.97
2023-02-15T02:36:42.828Z,38.05
2023-02-15T02:39:24.789Z,35.97
2023-02-15T02:41:58.184Z,36.92
2023-02-15T02:44:43.962Z,37.97
2023-02-15T02:47:26.471Z,37.47
2023-02-15T02:49:59.451Z,34.53
2023-02-15T02:52:44.501Z,39.60
2023-02-15T02:55:31.741Z,34.92
2023-02-15T02:58:01.754Z,38.42
2023-02-15T03:00:34.662Z,38.25
2023-02-15T03:03:09.004Z,36.92
2023-02-15T03:05:41.345Z,37.97
2023-02-15T03:08:10.893Z,36.55
2023-02-15T03:10:40.067Z,36.50
2023-02-15T03:13:08.608Z,40.33
2023-02-15T03:15:58.824Z,40.22
2023-02-15T03:18:32.619Z,38.10
2023-02-15T03:21:02.331Z,37.35
2023-02-15T03:23:31.239Z,40.22
2023-02-15T03:26:01.750Z,39.25
2023-02-15T03:28:43.525Z,40.53
2023-02-15T03:31:12.945Z,40.30
2023-02-15T03:33:45.770Z,38.60
2023-02-15T03:39:24.964Z,37.60
2023-02-15T03:42:27.444Z,39.92
2023-02-15T03:45:03.606Z,38.15
2023-02-15T03:47:44.119Z,38.28
2023-02-15T03:50:36.065Z,38.22
2023-02-15T03:53:06.358Z,38.42
2023-02-15T03:55:34.988Z,38.33
2023-02-15T03:58:20.162Z,38.00
2023-02-15T04:01:19.521Z,36.65
2023-02-15T04:03:54.034Z,37.33
2023-02-15T04:06:20.780Z,40.08
2023-02-15T04:09:06.263Z,38.50
2023-02-15T04:11:33.045Z,37.78
2023-02-15T04:13:59.857Z,38.13
2023-02-15T04:16:26.924Z,37.45
2023-02-15T04:19:12.283Z,38.28
2023-02-15T04:21:57.855Z,37.05
2023-02-15T04:24:43.320Z,36.95
2023-02-15T04:27:10.244Z,35.35
2023-02-15T04:29:36.995Z,38.75
2023-02-15T04:32:03.837Z,36.83
2023-02-15T04:34:30.716Z,38.58
2023-02-15T04:36:57.517Z,38.75
2023-02-15T04:39:24.340Z,38.33
2023-02-15T04:41:51.077Z,37.33
2023-02-15T04:44:17.863Z,39.78
2023-02-15T04:46:44.589Z,38.60
2023-02-15T04:49:11.318Z,39.88
2023-02-15T04:51:38.435Z,39.08
2023-02-15T04:54:05.368Z,38.72
2023-02-15T04:56:34.041Z,38.13
2023-02-15T04:59:00.860Z,37.40
2023-02-15T05:01:28.129Z,37.47
2023-02-15T05:03:55.003Z,37.72
2023-02-15T05:06:21.865Z,37.13
2023-02-15T05:08:48.664Z,38.28
2023-02-15T05:11:15.394Z,40.88
2023-02-15T05:13:42.329Z,39.05
2023-02-15T05:16:09.442Z,38.05
2023-02-15T05:18:36.257Z,40.88
2023-02-15T05:21:03.104Z,39.13
2023-02-15T05:23:29.880Z,40.10
2023-02-15T05:26:17.670Z,40.00
2023-02-15T05:28:44.530Z,39.15
2023-02-15T05:31:14.363Z,37.92
2023-02-15T05:33:41.897Z,36.95
2023-02-15T05:36:09.640Z,37.75
2023-02-15T05:38:39.446Z,39.33
2023-02-15T05:41:11.551Z,37.25
2023-02-15T05:43:39.608Z,39.70
2023-02-15T05:46:07.030Z,37.78
2023-02-15T05:48:34.540Z,36.58
2023-02-15T05:51:07.287Z,38.78
2023-02-15T05:53:36.702Z,37.72
2023-02-15T05:56:04.763Z,38.03
2023-02-15T05:58:34.648Z,37.63
2023-02-15T06:01:08.368Z,37.38
2023-02-15T06:03:35.182Z,38.00
2023-02-15T06:06:02.351Z,39.22
2023-02-15T06:08:29.317Z,37.45
2023-02-15T06:10:56.153Z,37.45
2023-02-15T06:13:22.876Z,38.33
2023-02-15T06:15:49.782Z,36.92
2023-02-15T06:18:16.642Z,36.30
2023-02-15T06:20:43.430Z,37.35
2023-02-15T06:23:10.179Z,36.83
2023-02-15T06:25:38.587Z,37.05
2023-02-15T06:28:06.729Z,37.22
2023-02-15T06:30:33.674Z,35.60
2023-02-15T06:33:00.488Z,35.33
2023-02-15T06:35:27.248Z,35.63
2023-02-15T06:37:54.069Z,34.42
2023-02-15T06:40:21.138Z,33.70
2023-02-15T06:42:48.125Z,35.42
2023-02-15T06:45:15.259Z,34.90
2023-02-15T06:47:42.005Z,37.33
2023-02-15T06:50:09.833Z,38.95
2023-02-15T06:52:36.733Z,36.45
2023-02-15T06:55:04.080Z,36.65
2023-02-15T06:57:31.040Z,36.28
2023-02-15T06:59:59.434Z,38.75
2023-02-15T07:02:26.477Z,37.38
2023-02-15T07:04:53.234Z,36.95
2023-02-15T07:07:20.000Z,37.13
2023-02-15T07:09:46.809Z,35.95
2023-02-15T07:12:31.988Z,35.33
2023-02-15T07:14:59.273Z,36.60
2023-02-15T07:17:36.867Z,34.45
2023-02-15T07:20:06.396Z,35.00
2023-02-15T07:22:35.123Z,35.65
2023-02-15T07:25:02.203Z,34.85
2023-02-15T07:27:29.033Z,33.95
2023-02-15T07:29:55.893Z,34.15
2023-02-15T07:32:22.738Z,34.20
2023-02-15T07:34:49.598Z,32.80
2023-02-15T07:37:16.386Z,32.38
2023-02-15T07:39:43.433Z,32.50
2023-02-15T07:42:10.266Z,33.28
2023-02-15T07:44:37.009Z,32.00
2023-02-15T07:47:03.772Z,32.75
2023-02-15T07:49:30.650Z,34.28
2023-02-15T07:51:57.509Z,32.92
2023-02-15T07:54:24.372Z,34.47
2023-02-15T07:56:51.201Z,32.25
2023-02-15T07:59:18.056Z,34.63
2023-02-15T08:01:44.884Z,31.27
2023-02-15T08:04:12.131Z,32.72
2023-02-15T08:06:39.550Z,33.80
2023-02-15T08:09:10.464Z,31.75
2023-02-15T08:11:38.647Z,31.80
2023-02-15T08:14:20.419Z,29.90
2023-02-15T08:16:50.028Z,29.63
2023-02-15T08:19:36.673Z,29.50
2023-02-15T08:22:08.399Z,27.48
2023-02-15T08:24:40.640Z,28.65
2023-02-15T08:27:09.278Z,27.83
2023-02-15T08:29:38.389Z,27.23
2023-02-15T08:32:08.452Z,27.38
2023-02-15T08:34:38.567Z,25.77
2023-02-15T08:37:06.997Z,26.70
2023-02-15T08:39:34.469Z,26.05
2023-02-15T08:42:01.480Z,24.08
2023-02-15T08:44:28.442Z,24.23
2023-02-15T08:46:55.723Z,23.05
2023-02-15T08:49:23.258Z,25.30
2023-02-15T08:51:51.066Z,22.55
2023-02-15T08:54:20.784Z,23.60
2023-02-15T08:56:47.877Z,22.55
2023-02-15T08:59:17.829Z,21.45
2023-02-15T09:01:45.452Z,21.38
2023-02-15T09:04:14.169Z,20.55
2023-02-15T09:06:41.943Z,20.17
2023-02-15T09:09:09.543Z,19.95
2023-02-15T09:11:39.692Z,21.50
2023-02-15T09:14:14.533Z,20.85
2023-02-15T09:16:43.282Z,19.35
2023-02-15T09:19:10.195Z,19.45
2023-02-15T09:21:38.188Z,18.40
2023-02-15T09:24:07.745Z,20.13
2023-02-15T09:26:36.937Z,18.60
2023-02-15T09:29:04.974Z,19.13
2023-02-15T09:31:34.918Z,17.70
2023-02-15T09:34:04.840Z,18.40
2023-02-15T09:36:36.892Z,17.77
2023-02-15T09:39:28.322Z,18.47
2023-02-15T09:42:22.307Z,18.23
2023-02-15T09:45:19.082Z,16.70
2023-02-15T09:48:04.451Z,17.52
2023-02-15T09:50:55.153Z,17.10
2023-02-15T09:53:38.287Z,17.45
2023-02-15T09:58:52.349Z,17.48
2023-02-15T10:01:28.096Z,16.95
2023-02-15T10:04:27.164Z,18.02
2023-02-15T10:07:31.304Z,18.48
2023-02-15T10:10:07.191Z,16.60
2023-02-15T10:12:54.183Z,16.77
2023-02-15T10:15:45.575Z,16.95
2023-02-15T10:18:34.694Z,17.15
2023-02-15T10:21:40.230Z,16.98
2023-02-15T10:24:09.878Z,16.52
2023-02-15T10:26:45.495Z,16.65
2023-02-15T10:29:21.411Z,16.42
2023-02-15T10:31:49.897Z,16.92
2023-02-15T10:34:22.710Z,15.70
2023-02-15T10:37:09.194Z,16.33
2023-02-15T10:40:20.899Z,17.02
2023-02-15T10:43:01.101Z,18.98
2023-02-15T10:45:50.996Z,17.88
2023-02-15T10:48:56.733Z,16.42
2023-02-15T10:51:57.262Z,16.65
2023-02-15T10:54:23.987Z,17.63
2023-02-15T10:57:21.362Z,17.30
2023-02-15T10:59:48.093Z,15.80
2023-02-15T11:02:36.110Z,16.00
2023-02-15T11:05:20.682Z,17.83
2023-02-15T11:07:50.171Z,16.00
2023-02-15T11:10:36.668Z,15.95
2023-02-15T11:13:21.775Z,15.43
2023-02-15T11:15:56.497Z,15.15
2023-02-15T11:18:33.182Z,15.63
2023-02-15T11:21:25.383Z,15.88
2023-02-15T11:23:52.951Z,17.13
2023-02-15T11:26:35.436Z,15.32
2023-02-15T11:29:33.179Z,15.07
2023-02-15T11:32:04.705Z,16.80
2023-02-15T11:34:39.755Z,16.25
2023-02-15T11:37:11.200Z,15.52
2023-02-15T11:39:38.495Z,15.65
2023-02-15T11:42:15.098Z,16.08
2023-02-15T11:44:56.366Z,15.43
2023-02-15T11:47:23.518Z,15.63
2023-02-15T11:49:50.367Z,15.30
2023-02-15T11:52:19.432Z,15.10
2023-02-15T11:54:51.162Z,15.02
2023-02-15T11:57:36.477Z,15.02
2023-02-15T12:00:08.583Z,14.18
2023-02-15T12:02:38.507Z,13.60
2023-02-15T12:05:12.497Z,15.07
2023-02-15T12:08:06.881Z,14.05
2023-02-15T12:10:41.068Z,14.48
2023-02-15T12:13:14.179Z,13.98
2023-02-15T12:15:47.770Z,14.15
2023-02-15T12:18:41.219Z,14.32
2023-02-15T12:23:53.009Z,13.35
2023-02-15T12:26:56.663Z,14.65
2023-02-15T12:31:54.638Z,13.75
2023-02-15T12:34:37.390Z,14.07
2023-02-15T12:37:15.723Z,15.23
2023-02-15T12:39:58.864Z,14.90
2023-02-15T12:42:27.168Z,14.85
2023-02-15T12:45:20.155Z,13.90
2023-02-15T12:47:46.932Z,13.57
2023-02-15T12:50:19.643Z,15.77
2023-02-15T12:52:52.217Z,14.82
2023-02-15T12:55:30.835Z,14.32
2023-02-15T12:58:24.424Z,13.90
2023-02-15T13:01:03.500Z,13.25
2023-02-15T13:03:30.889Z,14.52
2023-02-15T13:05:59.189Z,13.50
2023-02-15T13:08:34.826Z,13.40
2023-02-15T13:11:11.677Z,13.55
2023-02-15T13:14:03.202Z,14.30
2023-02-15T13:16:39.928Z,14.10
2023-02-15T13:19:20.811Z,14.68
2023-02-15T13:21:51.026Z,13.45
2023-02-15T13:24:26.702Z,12.88
2023-02-15T13:27:12.927Z,12.90
2023-02-15T13:29:45.849Z,14.20
2023-02-15T13:32:32.242Z,13.65
2023-02-15T13:35:02.033Z,13.23
2023-02-15T13:37:53.054Z,13.35
2023-02-15T13:40:44.145Z,14.48
2023-02-15T13:43:58.415Z,13.48
2023-02-15T13:46:50.291Z,13.02
2023-02-15T13:49:34.965Z,12.95
2023-02-15T13:52:21.735Z,13.32
2023-02-15T13:55:26.668Z,13.90
2023-02-15T13:58:10.221Z,13.82
2023-02-15T14:00:46.157Z,14.60
2023-02-15T14:03:16.805Z,12.85
2023-02-15T14:05:49.530Z,13.85
2023-02-15T14:08:48.259Z,14.65
2023-02-15T14:11:56.428Z,13.02
2023-02-15T14:14:55.661Z,12.85
2023-02-15T14:17:29.454Z,14.07
2023-02-15T14:20:02.083Z,13.38
2023-02-15T14:22:56.264Z,13.00
2023-02-15T14:25:29.880Z,12.85
2023-02-15T14:28:12.458Z,13.68
2023-02-15T14:30:42.475Z,13.38
2023-02-15T14:33:14.892Z,13.35
2023-02-15T14:35:43.492Z,12.70
2023-02-15T14:38:28.160Z,13.48
2023-02-15T14:41:06.064Z,13.45
2023-02-15T14:44:14.140Z,13.43
2023-02-15T14:46:56.986Z,12.50
2023-02-15T14:49:28.610Z,13.00
2023-02-15T14:51:58.978Z,12.88
2023-02-15T14:54:25.695Z,13.32
2023-02-15T14:57:01.500Z,14.63
2023-02-15T14:59:56.886Z,14.50
2023-02-15T15:02:44.850Z,13.65
2023-02-15T15:05:17.646Z,12.88
2023-02-15T15:07:58.005Z,13.75
2023-02-15T15:10:24.736Z,13.13
2023-02-15T15:12:55.991Z,12.57
2023-02-15T15:15:28.900Z,13.55
2023-02-15T15:18:00.518Z,13.65
2023-02-15T15:20:27.958Z,13.82
2023-02-15T15:23:16.768Z,13.32
2023-02-15T15:25:50.979Z,13.13
2023-02-15T15:28:36.237Z,14.25
2023-02-15T15:31:27.804Z,13.05
2023-02-15T15:34:22.516Z,13.38
2023-02-15T15:36:58.135Z,14.45
2023-02-15T15:39:49.468Z,13.75
2023-02-15T15:42:48.987Z,14.98
2023-02-15T15:45:34.595Z,13.93
2023-02-15T15:48:23.204Z,15.30
2023-02-15T15:50:55.284Z,13.85
2023-02-15T15:53:25.486Z,15.83
2023-02-15T15:56:00.512Z,14.25
2023-02-15T15:58:28.095Z,14.52
2023-02-15T16:01:05.311Z,14.45
2023-02-15T16:03:32.140Z,14.57
2023-02-15T16:06:01.520Z,14.60
2023-02-15T16:08:35.218Z,14.30
2023-02-15T16:11:15.415Z,13.85
2023-02-15T16:13:43.421Z,14.80
2023-02-15T16:16:13.746Z,14.63
2023-02-15T16:18:48.137Z,13.48
2023-02-15T16:21:22.097Z,14.10
2023-02-15T16:24:02.339Z,13.60
2023-02-15T16:26:49.085Z,13.93
2023-02-15T16:29:17.961Z,14.30
2023-02-15T16:31:57.809Z,13.48
2023-02-15T16:34:24.699Z,13.85
2023-02-15T16:36:51.888Z,14.68
2023-02-15T16:39:20.888Z,14.63
2023-02-15T16:41:50.155Z,14.35
2023-02-15T16:44:20.449Z,14.57
2023-02-15T16:46:54.888Z,14.68
2023-02-15T16:49:25.624Z,14.95
2023-02-15T16:52:03.844Z,15.23
2023-02-15T16:54:32.815Z,14.75
2023-02-15T16:57:00.219Z,13.77
2023-02-15T16:59:48.001Z,14.27
2023-02-15T17:02:43.136Z,15.75
2023-02-15T17:07:43.556Z,13.73
2023-02-15T17:10:42.537Z,15.30
2023-02-15T17:13:14.711Z,14.75
2023-02-15T17:15:43.925Z,15.70
2023-02-15T17:18:22.405Z,13.50
2023-02-15T17:20:51.915Z,14.13
2023-02-15T17:23:42.343Z,14.98
2023-02-15T17:26:19.765Z,14.43
2023-02-15T17:28:53.464Z,13.82
2023-02-15T17:31:21.931Z,14.38
2023-02-15T17:33:49.243Z,13.68
2023-02-15T17:36:23.456Z,15.52
2023-02-15T17:38:59.140Z,15.43
2023-02-15T17:41:30.746Z,14.27
2023-02-15T17:43:57.911Z,14.73
2023-02-15T17:46:25.669Z,16.05
2023-02-15T17:48:55.723Z,16.30
2023-02-15T17:51:23.528Z,16.65
2023-02-15T17:54:09.103Z,14.43
2023-02-15T17:56:37.598Z,14.77
2023-02-15T17:59:08.034Z,14.90
2023-02-15T18:01:55.674Z,16.15
2023-02-15T18:04:42.092Z,14.88
2023-02-15T18:07:32.046Z,15.00
2023-02-15T18:10:17.533Z,14.45
2023-02-15T18:12:44.424Z,15.35
2023-02-15T18:15:13.119Z,16.30
2023-02-15T18:17:47.796Z,15.45
2023-02-15T18:20:24.867Z,15.55
2023-02-15T18:22:52.455Z,15.10
2023-02-15T18:25:21.888Z,16.40
2023-02-15T18:27:49.277Z,16.83
2023-02-15T18:30:19.497Z,16.00
2023-02-15T18:32:51.346Z,16.17
2023-02-15T18:35:21.291Z,16.50
2023-02-15T18:37:49.089Z,16.13
2023-02-15T18:40:17.882Z,17.90
2023-02-15T18:42:48.122Z,16.45
2023-02-15T18:45:24.914Z,17.33
2023-02-15T18:47:52.263Z,17.02
2023-02-15T18:50:21.142Z,16.20
2023-02-15T18:52:52.637Z,16.00
2023-02-15T18:55:28.150Z,17.20
2023-02-15T18:57:57.322Z,16.55
2023-02-15T19:00:28.403Z,16.35
2023-02-15T19:02:56.349Z,18.17
2023-02-15T19:05:24.386Z,18.05
2023-02-15T19:07:51.815Z,17.60
2023-02-15T19:10:24.437Z,16.95
2023-02-15T19:12:53.246Z,17.40
2023-02-15T19:15:24.043Z,17.90
2023-02-15T19:17:54.765Z,16.95
2023-02-15T19:20:22.767Z,17.95
2023-02-15T19:22:51.460Z,18.13
2023-02-15T19:25:25.145Z,18.30
2023-02-15T19:27:53.488Z,18.90
2023-02-15T19:30:28.704Z,19.00
2023-02-15T19:32:56.954Z,19.45
2023-02-15T19:35:31.836Z,19.75
2023-02-15T19:38:02.860Z,18.67
2023-02-15T19:40:32.554Z,18.70
2023-02-15T19:42:59.389Z,18.42
2023-02-15T19:45:28.700Z,19.40
2023-02-15T19:47:56.113Z,19.60
2023-02-15T19:50:25.862Z,19.58
2023-02-15T19:52:53.089Z,19.70
2023-02-15T19:55:27.641Z,19.83
2023-02-15T19:57:56.111Z,17.95
2023-02-15T20:00:26.128Z,18.65
2023-02-15T20:02:54.495Z,19.25
2023-02-15T20:05:22.058Z,20.30
2023-02-15T20:07:51.570Z,20.60
2023-02-15T20:10:23.175Z,21.42
2023-02-15T20:12:50.675Z,20.63
2023-02-15T20:15:30.054Z,20.02
2023-02-15T20:17:58.862Z,20.00
2023-02-15T20:20:50.792Z,20.55
2023-02-15T20:23:22.713Z,19.75
2023-02-15T20:25:50.684Z,20.98
2023-02-15T20:28:35.730Z,21.02
2023-02-15T20:31:03.354Z,19.83
2023-02-15T20:33:30.352Z,19.77
2023-02-15T20:35:58.668Z,21.35
2023-02-15T20:38:29.184Z,19.98
2023-02-15T20:41:16.138Z,22.17
2023-02-15T20:43:45.710Z,20.80
2023-02-15T20:46:12.584Z,22.92
2023-02-15T20:48:39.626Z,22.52
2023-02-15T20:51:11.424Z,21.63
2023-02-15T20:53:38.301Z,23.48
2023-02-15T20:56:05.419Z,22.77
2023-02-15T20:58:32.469Z,23.48
2023-02-15T21:00:59.795Z,22.42
2023-02-15T21:03:30.946Z,22.83
2023-02-15T21:05:59.015Z,22.63
2023-02-15T21:08:26.396Z,25.30
2023-02-15T21:10:54.716Z,23.83
2023-02-15T21:13:22.807Z,24.23
2023-02-15T21:15:51.794Z,25.35
2023-02-15T21:18:44.867Z,24.25
2023-02-15T21:21:23.600Z,25.23
2023-02-15T21:23:53.916Z,23.98
2023-02-15T21:26:22.600Z,25.38
2023-02-15T21:28:55.257Z,24.52
2023-02-15T21:31:25.646Z,24.17
2023-02-15T21:33:53.168Z,23.70
2023-02-15T21:36:23.649Z,24.48
2023-02-15T21:38:51.233Z,25.13
2023-02-15T21:41:41.621Z,22.55
2023-02-15T21:44:33.983Z,23.67
2023-02-15T21:47:19.547Z,24.33
2023-02-15T21:49:46.365Z,24.77
2023-02-15T21:52:14.335Z,25.42
2023-02-15T21:54:41.557Z,24.52
2023-02-15T21:57:14.771Z,25.33
2023-02-15T21:59:44.561Z,24.13
2023-02-15T22:02:30.966Z,25.45
2023-02-15T22:04:59.098Z,23.88
2023-02-15T22:07:25.896Z,24.77
2023-02-15T22:09:54.236Z,26.00
2023-02-15T22:12:22.319Z,24.95
2023-02-15T22:14:53.424Z,24.45
2023-02-15T22:17:23.300Z,24.88
2023-02-15T22:19:50.739Z,27.05
2023-02-15T22:22:18.520Z,24.52
2023-02-15T22:24:45.800Z,25.20
2023-02-15T22:27:34.880Z,25.90
2023-02-15T22:30:01.717Z,26.23
2023-02-15T22:32:28.567Z,25.67
2023-02-15T22:34:55.516Z,25.70
2023-02-15T22:37:22.353Z,24.33
2023-02-15T22:39:49.129Z,26.13
2023-02-15T22:42:27.619Z,25.35
2023-02-15T22:44:56.164Z,25.75
2023-02-15T22:47:28.493Z,27.67
2023-02-15T22:49:55.537Z,25.20
2023-02-15T22:52:22.600Z,25.60
2023-02-15T22:54:49.493Z,26.30
2023-02-15T22:57:28.558Z,26.27
2023-02-15T22:59:55.641Z,25.60
2023-02-15T23:02:22.513Z,26.38
2023-02-15T23:04:49.395Z,25.90
2023-02-15T23:07:18.316Z,26.83
2023-02-15T23:09:45.786Z,27.08
2023-02-15T23:12:52.050Z,26.63
2023-02-15T23:15:19.147Z,26.60
2023-02-15T23:17:46.047Z,28.15
2023-02-15T23:20:16.280Z,26.80
2023-02-15T23:22:43.610Z,27.77
2023-02-15T23:25:12.060Z,28.17
2023-02-15T23:27:56.977Z,28.60
2023-02-15T23:30:24.499Z,26.85
2023-02-15T23:32:54.674Z,28.00
2023-02-15T23:35:21.724Z,28.30
2023-02-15T23:37:48.598Z,26.48
2023-02-15T23:40:39.784Z,27.90
2023-02-15T23:43:11.673Z,26.13
2023-02-15T23:45:39.450Z,29.63
2023-02-15T23:48:34.919Z,27.35
2023-02-15T23:51:02.595Z,29.42
2023-02-15T23:53:29.935Z,27.85
2023-02-15T23:55:57.921Z,27.50
2023-02-15T23:58:36.171Z,28.08
